Time;durP1;ratioP1;P1;durP2;ratioP2;P2;SDS_P1;SDS_P2;PMS_P1;PMS_P2;Temp;Humidity;BMP_temperature;BMP_pressure;BME280_temperature;BME280_humidity;BME280_pressure;Samples;Min_cycle;Max_cycle;Signal;HPM_P1;HPM_P2
2021/12/15 00:00:58;;;;;;;1.50;1.40;;;9.30;99.90;;;;;;5059969;28;20063;-94
2021/12/15 00:03:28;;;;;;;1.38;1.27;;;9.30;99.90;;;;;;5054228;28;20477;-94
2021/12/15 00:05:54;;;;;;;1.05;0.98;;;9.40;99.90;;;;;;5041615;28;20089;-94
2021/12/15 00:08:21;;;;;;;4.00;1.27;;;9.40;99.90;;;;;;5053382;28;20045;-94
2021/12/15 00:10:48;;;;;;;1.30;1.20;;;9.30;99.90;;;;;;5053768;28;20040;-94
2021/12/15 00:13:16;;;;;;;1.63;1.17;;;9.40;99.90;;;;;;5061622;28;20075;-94
2021/12/15 00:15:44;;;;;;;2.78;2.10;;;9.40;99.90;;;;;;5057289;28;20060;-93
2021/12/15 00:18:10;;;;;;;2.28;2.10;;;9.40;99.90;;;;;;5054662;28;20108;-93
2021/12/15 00:20:36;;;;;;;1.00;1.00;;;9.40;99.90;;;;;;5054159;28;20074;-93
2021/12/15 00:23:02;;;;;;;1.55;1.20;;;9.40;99.90;;;;;;5053123;28;20051;-92
2021/12/15 00:25:35;;;;;;;2.67;2.22;;;9.40;99.90;;;;;;5052960;28;20059;-93
2021/12/15 00:28:01;;;;;;;1.13;1.08;;;9.50;99.90;;;;;;5048092;28;20080;-93
2021/12/15 00:30:27;;;;;;;2.53;1.35;;;9.40;99.90;;;;;;5054047;28;20047;-93
2021/12/15 00:32:53;;;;;;;8.52;2.47;;;9.40;99.90;;;;;;5051789;28;20104;-93
2021/12/15 00:35:19;;;;;;;1.42;1.33;;;9.30;99.90;;;;;;5053160;28;20044;-93
2021/12/15 00:37:45;;;;;;;1.25;1.15;;;9.40;99.90;;;;;;5048984;28;20516;-94
2021/12/15 00:40:13;;;;;;;3.22;1.95;;;9.20;99.90;;;;;;5068813;28;20041;-94
2021/12/15 00:42:40;;;;;;;1.38;1.27;;;9.40;99.90;;;;;;5053024;28;20048;-94
2021/12/15 00:45:07;;;;;;;3.83;1.42;;;9.40;99.90;;;;;;5050223;28;20065;-94
2021/12/15 00:47:33;;;;;;;4.25;2.97;;;9.40;99.90;;;;;;5059446;28;20041;-94
2021/12/15 00:50:06;;;;;;;1.00;1.00;;;9.40;99.90;;;;;;5069863;28;20064;-94
2021/12/15 00:52:32;;;;;;;1.30;1.20;;;9.40;99.90;;;;;;5036825;28;20064;-93
2021/12/15 00:54:58;;;;;;;1.60;1.42;;;9.30;99.90;;;;;;5051378;28;20136;-94
2021/12/15 00:57:24;;;;;;;0.85;0.85;;;9.40;99.90;;;;;;5062651;28;20036;-93
2021/12/15 00:59:50;;;;;;;2.30;1.67;;;9.40;99.90;;;;;;5057294;28;20131;-92
2021/12/15 01:02:16;;;;;;;1.23;1.13;;;9.40;99.90;;;;;;5052283;28;20073;-93
2021/12/15 01:04:41;;;;;;;1.23;1.13;;;9.50;99.90;;;;;;5051582;28;20041;-93
2021/12/15 01:07:09;;;;;;;1.42;1.20;;;9.50;99.90;;;;;;5051409;28;20040;-94
2021/12/15 01:09:45;;;;;;;1.67;1.58;;;9.40;99.90;;;;;;5053380;28;20108;-93
2021/12/15 01:20:26;;;;;;;0.90;0.90;;;9.50;99.90;;;;;;5069697;28;20064;-93
2021/12/15 01:22:55;;;;;;;1.10;0.93;;;9.50;99.90;;;;;;5052123;28;20052;-92
2021/12/15 01:25:40;;;;;;;2.70;1.00;;;9.50;99.90;;;;;;5062112;28;20047;-93
2021/12/15 01:28:07;;;;;;;2.15;1.95;;;9.50;99.90;;;;;;5053742;28;20058;-94
2021/12/15 01:30:39;;;;;;;1.35;1.25;;;9.50;99.90;;;;;;5039666;28;20079;-92
2021/12/15 01:33:05;;;;;;;1.20;1.10;;;9.60;99.90;;;;;;5054004;28;20056;-93
2021/12/15 01:35:32;;;;;;;3.13;2.15;;;9.50;99.90;;;;;;5051032;28;20056;-93
2021/12/15 01:37:58;;;;;;;3.78;2.33;;;9.50;99.90;;;;;;5051939;28;20072;-94
2021/12/15 01:40:34;;;;;;;2.03;1.75;;;9.50;99.90;;;;;;5051777;28;20097;-93
2021/12/15 01:43:04;;;;;;;3.83;2.60;;;9.50;99.90;;;;;;5055981;28;20049;-94
2021/12/15 01:48:16;;;;;;;1.55;1.13;;;9.50;99.90;;;;;;5067703;28;20056;-94
2021/12/15 01:50:43;;;;;;;1.95;1.02;;;9.60;99.90;;;;;;5058127;28;20043;-94
2021/12/15 01:53:10;;;;;;;2.20;1.25;;;9.50;99.90;;;;;;5063657;28;20255;-94
2021/12/15 01:55:36;;;;;;;9.73;3.08;;;9.60;99.90;;;;;;5062555;28;20046;-94
2021/12/15 01:58:03;;;;;;;1.77;1.67;;;9.60;99.90;;;;;;5045219;28;20040;-92
2021/12/15 02:00:40;;;;;;;5.90;2.17;;;9.60;99.90;;;;;;5047571;28;20053;-92
2021/12/15 02:03:06;;;;;;;2.67;1.20;;;9.60;99.90;;;;;;5061553;28;20158;-92
2021/12/15 02:05:34;;;;;;;0.73;0.73;;;9.70;99.90;;;;;;5046677;28;20040;-93
2021/12/15 02:08:01;;;;;;;1.65;1.48;;;9.60;99.90;;;;;;5030878;28;20041;-94
2021/12/15 02:10:30;;;;;;;2.25;2.05;;;9.60;99.90;;;;;;5032048;28;20052;-92
2021/12/15 02:13:02;;;;;;;1.00;0.98;;;9.60;99.90;;;;;;5045139;28;20441;-93
2021/12/15 02:15:34;;;;;;;1.73;1.63;;;9.60;99.90;;;;;;5041500;28;20045;-92
2021/12/15 02:18:00;;;;;;;1.27;1.17;;;9.60;99.90;;;;;;5039149;28;20045;-92
2021/12/15 02:20:35;;;;;;;1.25;1.15;;;9.60;99.90;;;;;;5050299;28;20040;-93
2021/12/15 02:23:17;;;;;;;3.03;1.85;;;9.60;99.90;;;;;;5044352;28;20060;-93
2021/12/15 02:25:44;;;;;;;1.25;1.15;;;9.70;99.90;;;;;;5050660;28;20040;-93
2021/12/15 02:28:10;;;;;;;2.10;1.17;;;9.60;99.90;;;;;;5049988;28;20080;-93
2021/12/15 02:30:54;;;;;;;2.08;1.83;;;9.70;99.90;;;;;;5068159;28;20047;-93
2021/12/15 02:33:43;;;;;;;1.92;1.75;;;9.60;99.90;;;;;;5048946;28;20049;-92
2021/12/15 02:38:54;;;;;;;2.17;1.42;;;9.50;99.90;;;;;;5066876;28;20481;-95
2021/12/15 02:41:23;;;;;;;1.60;1.48;;;9.60;99.90;;;;;;5050201;28;20045;-95
2021/12/15 02:44:03;;;;;;;1.35;1.25;;;9.60;99.90;;;;;;5050441;28;20112;-95
2021/12/15 02:46:32;;;;;;;1.60;1.50;;;9.50;99.90;;;;;;5049503;28;20346;-94
2021/12/15 02:48:58;;;;;;;2.00;1.10;;;9.60;99.90;;;;;;5050308;28;20104;-93
2021/12/15 02:51:24;;;;;;;1.75;1.52;;;9.60;99.90;;;;;;5049575;28;20032;-94
2021/12/15 02:53:51;;;;;;;6.22;1.25;;;9.70;99.90;;;;;;5046999;28;20470;-93
2021/12/15 02:56:17;;;;;;;2.83;1.60;;;9.50;99.90;;;;;;5062713;28;20143;-95
2021/12/15 02:58:52;;;;;;;2.17;1.45;;;9.60;99.90;;;;;;5048180;28;20107;-94
2021/12/15 03:01:29;;;;;;;2.35;1.60;;;9.70;99.90;;;;;;5050962;28;20048;-94
2021/12/15 03:06:48;;;;;;;2.13;1.75;;;9.70;99.90;;;;;;5071354;28;20044;-93
2021/12/15 03:15:19;;;;;;;3.35;2.28;;;9.60;99.90;;;;;;5056116;28;20033;-94
2021/12/15 03:17:32;;;;;;;1.17;1.08;;;9.60;99.90;;;;;;5069243;28;20086;-92
2021/12/15 03:19:58;;;;;;;8.25;2.95;;;9.60;99.90;;;;;;5052643;28;20041;-91
2021/12/15 03:22:26;;;;;;;1.35;1.25;;;9.70;99.90;;;;;;5053601;28;20048;-92
2021/12/15 03:24:52;;;;;;;2.30;1.20;;;9.70;99.90;;;;;;5054898;28;20043;-92
2021/12/15 03:27:23;;;;;;;1.77;1.23;;;9.70;99.90;;;;;;5060180;28;20127;-92
2021/12/15 03:37:54;;;;;;;4.20;1.80;;;9.70;99.90;;;;;;5069208;28;20056;-93
2021/12/15 03:40:23;;;;;;;2.70;2.33;;;9.70;99.90;;;;;;5053852;28;20104;-93
2021/12/15 03:42:57;;;;;;;1.23;1.10;;;9.70;99.90;;;;;;5057834;28;20122;-93
2021/12/15 03:45:32;;;;;;;3.20;2.90;;;9.70;99.90;;;;;;5071752;28;20046;-93
2021/12/15 03:48:02;;;;;;;2.80;2.03;;;9.70;99.90;;;;;;5056934;28;20084;-93
2021/12/15 03:50:31;;;;;;;1.63;1.52;;;9.60;99.90;;;;;;5056603;28;20049;-94
2021/12/15 03:52:58;;;;;;;1.20;1.15;;;9.70;99.90;;;;;;5071780;28;20063;-93
2021/12/15 03:55:28;;;;;;;1.05;1.00;;;9.60;99.90;;;;;;5056111;28;20044;-94
2021/12/15 03:57:55;;;;;;;2.15;1.63;;;9.60;99.90;;;;;;5039946;28;20045;-93
2021/12/15 04:00:22;;;;;;;2.50;1.15;;;9.60;99.90;;;;;;5067110;28;20036;-94
2021/12/15 04:02:50;;;;;;;1.73;1.63;;;9.70;99.90;;;;;;5056918;28;20041;-93
2021/12/15 04:05:19;;;;;;;1.92;1.83;;;9.60;99.90;;;;;;5049831;28;20044;-92
2021/12/15 04:07:46;;;;;;;3.15;1.73;;;9.80;99.90;;;;;;5065266;28;20159;-94
2021/12/15 04:10:16;;;;;;;2.45;2.25;;;9.70;99.90;;;;;;5058163;28;20055;-93
2021/12/15 04:12:42;;;;;;;0.80;0.80;;;9.60;99.90;;;;;;5061351;28;20055;-93
2021/12/15 04:18:03;;;;;;;1.75;1.13;;;9.60;99.90;;;;;;5034854;28;20193;-94
2021/12/15 04:20:37;;;;;;;2.33;2.13;;;9.70;99.90;;;;;;5053893;28;20075;-93
2021/12/15 04:23:11;;;;;;;2.85;1.73;;;9.60;99.90;;;;;;5071366;28;20082;-92
2021/12/15 04:25:40;;;;;;;1.73;1.25;;;9.60;99.90;;;;;;5049513;28;20113;-92
2021/12/15 04:28:33;;;;;;;9.50;4.20;;;9.70;99.90;;;;;;5054894;28;20080;-93
2021/12/15 04:31:09;;;;;;;4.00;2.55;;;9.70;99.90;;;;;;5054611;28;20044;-93
2021/12/15 04:33:38;;;;;;;;;;;9.70;99.90;;;;;;5054080;28;20071;-93
2021/12/15 04:36:14;;;;;;;4.72;2.15;;;9.60;99.90;;;;;;5056093;28;19908;-93
2021/12/15 04:38:44;;;;;;;4.93;1.88;;;9.60;99.90;;;;;;5068735;28;20089;-93
2021/12/15 04:41:16;;;;;;;1.52;1.42;;;9.60;99.90;;;;;;5052873;28;20045;-92
2021/12/15 04:43:55;;;;;;;2.38;1.80;;;9.60;99.90;;;;;;5067738;28;20033;-94
2021/12/15 04:46:21;;;;;;;1.48;1.20;;;9.60;99.90;;;;;;5055259;28;20071;-92
2021/12/15 04:48:49;;;;;;;1.55;1.45;;;9.60;99.90;;;;;;5054209;28;20055;-92
2021/12/15 04:51:15;;;;;;;1.23;1.13;;;9.60;99.90;;;;;;5048326;28;20071;-92
2021/12/15 04:53:41;;;;;;;3.30;2.08;;;9.60;99.90;;;;;;5054281;28;20064;-93
2021/12/15 04:56:07;;;;;;;1.38;1.27;;;9.80;99.90;;;;;;5053959;28;20032;-92
2021/12/15 04:58:34;;;;;;;1.75;1.65;;;9.60;99.90;;;;;;5054556;28;20112;-93
2021/12/15 05:01:05;;;;;;;3.65;1.40;;;10.00;99.90;;;;;;5053820;28;20102;-93
2021/12/15 05:03:30;;;;;;;4.30;2.17;;;9.70;99.90;;;;;;5053150;28;20045;-92
2021/12/15 05:05:56;;;;;;;2.47;2.17;;;9.70;99.90;;;;;;5067163;28;20068;-92
2021/12/15 05:08:24;;;;;;;1.35;1.20;;;9.70;99.90;;;;;;5053857;28;20098;-92
2021/12/15 05:10:54;;;;;;;19.88;2.20;;;9.70;99.90;;;;;;5062867;28;20056;-93
2021/12/15 05:13:20;;;;;;;2.70;2.17;;;9.70;99.90;;;;;;5053368;28;20037;-93
2021/12/15 05:15:46;;;;;;;1.30;1.20;;;9.60;99.90;;;;;;5058609;28;20059;-93
2021/12/15 05:18:12;;;;;;;1.10;1.05;;;9.60;99.90;;;;;;5066822;28;20049;-93
2021/12/15 05:20:46;;;;;;;5.65;2.60;;;9.60;99.90;;;;;;5063974;28;20048;-93
2021/12/15 05:23:14;;;;;;;1.45;1.30;;;9.60;99.90;;;;;;5055743;28;20106;-93
2021/12/15 05:25:41;;;;;;;14.43;1.75;;;9.60;99.90;;;;;;5056114;28;20128;-93
2021/12/15 05:28:08;;;;;;;1.92;1.65;;;9.60;99.90;;;;;;5049559;28;20044;-93
2021/12/15 05:30:34;;;;;;;1.30;1.20;;;9.50;99.90;;;;;;5053744;28;20115;-92
2021/12/15 05:33:00;;;;;;;5.43;3.08;;;9.60;99.90;;;;;;5056336;28;20044;-92
2021/12/15 05:35:26;;;;;;;2.28;1.98;;;9.60;99.90;;;;;;5066288;28;20044;-92
2021/12/15 05:37:55;;;;;;;1.45;1.35;;;9.60;99.90;;;;;;5080038;28;20063;-93
2021/12/15 05:40:24;;;;;;;6.03;1.95;;;9.60;99.90;;;;;;5081289;28;20044;-93
2021/12/15 05:42:50;;;;;;;1.80;1.70;;;9.60;99.90;;;;;;5058596;28;20076;-93
2021/12/15 05:45:16;;;;;;;3.92;1.75;;;9.60;99.90;;;;;;5070138;28;20033;-93
2021/12/15 05:47:44;;;;;;;4.57;2.78;;;9.60;99.90;;;;;;5052914;28;20040;-94
2021/12/15 05:50:14;;;;;;;1.63;1.52;;;9.60;99.90;;;;;;5069759;28;20059;-92
2021/12/15 05:52:40;;;;;;;2.60;2.05;;;9.60;99.90;;;;;;5054311;28;20126;-93
2021/12/15 05:55:08;;;;;;;2.92;2.35;;;9.60;99.90;;;;;;5054353;28;20037;-93
2021/12/15 05:57:34;;;;;;;2.17;1.98;;;9.60;99.90;;;;;;5053557;28;20051;-92
2021/12/15 06:00:06;;;;;;;1.95;1.83;;;9.70;99.90;;;;;;5055040;28;20131;-92
2021/12/15 06:02:31;;;;;;;2.83;1.60;;;9.70;99.90;;;;;;5062168;28;20052;-93
2021/12/15 06:04:57;;;;;;;7.93;3.88;;;9.60;99.90;;;;;;5055683;28;20087;-93
2021/12/15 06:07:23;;;;;;;1.45;1.35;;;9.60;99.90;;;;;;5054685;28;20048;-93
2021/12/15 06:09:48;;;;;;;2.38;2.17;;;9.60;99.90;;;;;;5052766;28;20132;-92
2021/12/15 06:12:14;;;;;;;1.30;1.20;;;9.70;99.90;;;;;;5053995;28;20076;-93
2021/12/15 06:14:42;;;;;;;2.60;1.45;;;9.60;99.90;;;;;;5051623;28;20048;-93
2021/12/15 06:17:11;;;;;;;2.60;2.15;;;9.60;99.90;;;;;;5045844;28;20040;-92
2021/12/15 06:19:37;;;;;;;1.33;1.00;;;9.60;99.90;;;;;;5050759;28;20489;-92
2021/12/15 06:22:05;;;;;;;4.30;2.15;;;9.60;99.90;;;;;;5058841;28;20043;-92
2021/12/15 06:24:32;;;;;;;1.20;1.10;;;9.70;99.90;;;;;;5051872;28;20061;-92
2021/12/15 06:27:04;;;;;;;6.63;3.53;;;9.60;99.90;;;;;;5051933;28;20108;-92
2021/12/15 06:29:31;;;;;;;2.22;2.05;;;9.70;99.90;;;;;;5037951;28;20041;-92
2021/12/15 06:31:57;;;;;;;4.38;1.60;;;9.70;99.90;;;;;;5051111;28;20091;-91
2021/12/15 06:34:23;;;;;;;2.13;1.80;;;9.60;99.90;;;;;;5045173;28;20092;-92
2021/12/15 06:36:49;;;;;;;1.98;1.77;;;9.70;99.90;;;;;;5056232;28;20131;-92
2021/12/15 06:39:15;;;;;;;1.52;1.40;;;9.60;99.90;;;;;;5055164;28;20102;-92
2021/12/15 06:41:44;;;;;;;2.72;2.53;;;9.70;99.90;;;;;;5053629;28;20047;-92
2021/12/15 06:44:13;;;;;;;1.50;1.40;;;9.70;99.90;;;;;;5051542;28;20068;-93
2021/12/15 06:47:17;;;;;;;1.35;1.25;;;9.70;99.90;;;;;;5035537;28;20037;-92
2021/12/15 07:00:25;;;;;;;3.97;1.70;;;9.70;99.90;;;;;;5079601;28;20052;-93
2021/12/15 07:02:52;;;;;;;1.73;1.45;;;9.70;99.90;;;;;;5053243;28;20105;-92
2021/12/15 07:05:18;;;;;;;3.63;2.35;;;9.60;99.90;;;;;;5054064;28;20079;-91
2021/12/15 07:07:46;;;;;;;1.92;1.65;;;9.80;99.90;;;;;;5050140;28;20041;-92
2021/12/15 07:10:15;;;;;;;3.00;2.08;;;9.70;99.90;;;;;;5063618;28;20032;-94
2021/12/15 07:12:44;;;;;;;3.95;1.73;;;9.70;99.90;;;;;;5049218;28;20056;-92
2021/12/15 07:15:11;;;;;;;2.25;1.70;;;9.70;99.90;;;;;;5053959;28;20028;-92
2021/12/15 07:17:39;;;;;;;6.78;3.67;;;9.70;99.90;;;;;;5062450;28;20100;-93
2021/12/15 07:20:29;;;;;;;1.73;1.15;;;9.70;99.90;;;;;;5060612;28;20016;-93
2021/12/15 07:22:54;;;;;;;2.35;2.03;;;9.60;99.90;;;;;;5079756;28;20040;-92
2021/12/15 07:25:21;;;;;;;5.28;2.90;;;9.60;99.90;;;;;;5061712;28;20036;-91
2021/12/15 07:27:47;;;;;;;8.02;2.55;;;9.70;99.90;;;;;;5062858;28;20044;-90
2021/12/15 07:30:13;;;;;;;4.40;1.58;;;9.70;99.90;;;;;;5063543;28;20020;-90
2021/12/15 07:32:39;;;;;;;1.27;1.20;;;9.60;99.90;;;;;;5079737;28;20059;-90
2021/12/15 07:35:06;;;;;;;2.65;2.20;;;9.60;99.90;;;;;;5076330;28;20036;-90
2021/12/15 07:37:32;;;;;;;3.40;1.77;;;9.60;99.90;;;;;;5054490;28;20040;-90
2021/12/15 07:40:01;;;;;;;21.10;2.00;;;9.70;99.90;;;;;;5052453;28;20528;-90
2021/12/15 07:42:53;;;;;;;2.30;1.35;;;9.70;99.90;;;;;;5067081;28;20040;-91
2021/12/15 07:45:14;;;;;;;2.13;1.55;;;9.60;99.90;;;;;;5066290;28;20051;-91
2021/12/15 07:47:40;;;;;;;8.50;2.05;;;9.70;99.90;;;;;;5049781;28;20044;-90
2021/12/15 07:50:07;;;;;;;2.30;1.15;;;9.70;99.90;;;;;;5055287;28;20033;-89
2021/12/15 07:52:32;;;;;;;3.13;1.90;;;9.70;99.90;;;;;;5052203;28;20119;-88
2021/12/15 07:54:58;;;;;;;1.10;1.00;;;9.70;99.90;;;;;;5047433;28;20048;-89
2021/12/15 07:57:27;;;;;;;5.43;2.10;;;9.70;99.90;;;;;;5052247;28;20040;-88
2021/12/15 07:59:56;;;;;;;1.70;1.60;;;9.70;99.90;;;;;;5070949;28;20048;-89
2021/12/15 08:02:22;;;;;;;1.25;1.15;;;9.60;99.90;;;;;;5047511;28;20091;-87
2021/12/15 08:04:47;;;;;;;1.25;1.15;;;9.70;99.90;;;;;;5049022;28;20053;-88
2021/12/15 08:07:13;;;;;;;1.05;1.02;;;9.70;99.90;;;;;;5046532;28;20052;-88
2021/12/15 08:09:38;;;;;;;2.50;2.30;;;9.70;99.90;;;;;;5059811;28;20047;-89
2021/12/15 08:12:04;;;;;;;1.23;1.10;;;9.70;99.90;;;;;;5073283;28;20041;-89
2021/12/15 08:14:30;;;;;;;1.20;1.10;;;9.70;99.90;;;;;;5049908;28;20131;-87
2021/12/15 08:16:56;;;;;;;0.80;0.80;;;9.80;99.90;;;;;;5060297;28;20813;-89
2021/12/15 08:19:21;;;;;;;2.67;1.90;;;9.70;99.90;;;;;;5053161;28;20045;-91
2021/12/15 08:21:47;;;;;;;1.63;1.52;;;9.80;99.90;;;;;;5051995;28;20500;-92
2021/12/15 08:24:13;;;;;;;2.20;1.90;;;9.80;99.90;;;;;;5052270;28;20473;-94
2021/12/15 08:26:40;;;;;;;2.38;1.90;;;9.80;99.90;;;;;;5043265;28;20036;-92
2021/12/15 08:29:05;;;;;;;1.38;1.27;;;9.80;99.90;;;;;;5057328;28;20047;-90
2021/12/15 08:31:31;;;;;;;1.13;1.05;;;9.80;99.90;;;;;;5059663;28;20369;-91
2021/12/15 08:33:57;;;;;;;0.93;0.90;;;9.70;99.90;;;;;;5051677;28;20116;-92
2021/12/15 08:36:22;;;;;;;1.20;1.08;;;9.80;99.90;;;;;;5056747;28;20048;-94
2021/12/15 08:38:52;;;;;;;1.75;1.38;;;9.80;99.90;;;;;;5049916;28;20040;-92
2021/12/15 08:41:25;;;;;;;1.05;1.00;;;9.80;99.90;;;;;;5050605;28;20032;-91
2021/12/15 08:43:52;;;;;;;2.63;2.40;;;9.70;99.90;;;;;;5057566;28;20502;-91
2021/12/15 08:46:21;;;;;;;0.95;0.93;;;9.70;99.90;;;;;;5049215;28;20370;-89
2021/12/15 08:48:48;;;;;;;2.40;1.48;;;9.80;99.90;;;;;;5050077;28;20109;-89
2021/12/15 08:51:15;;;;;;;1.98;1.83;;;9.80;99.90;;;;;;5076122;28;20041;-89
2021/12/15 08:53:42;;;;;;;1.42;1.33;;;9.70;99.90;;;;;;5050129;28;20052;-91
2021/12/15 08:56:09;;;;;;;0.73;0.73;;;9.70;99.90;;;;;;5051626;28;20311;-92
2021/12/15 08:58:36;;;;;;;0.90;0.90;;;9.70;99.90;;;;;;5052527;28;20036;-91
2021/12/15 09:01:04;;;;;;;1.80;1.70;;;9.70;99.90;;;;;;5051818;28;20086;-91
2021/12/15 09:03:30;;;;;;;1.23;1.13;;;9.70;99.90;;;;;;5049435;28;20052;-89
2021/12/15 09:05:58;;;;;;;1.10;1.08;;;9.80;99.90;;;;;;5050558;28;20047;-90
2021/12/15 09:08:25;;;;;;;2.85;2.08;;;9.80;99.90;;;;;;5049134;28;20071;-91
2021/12/15 09:10:54;;;;;;;1.98;1.40;;;9.80;99.90;;;;;;5067811;28;20036;-92
2021/12/15 09:13:21;;;;;;;1.60;1.48;;;9.90;99.90;;;;;;5052137;28;20036;-91
2021/12/15 09:15:47;;;;;;;0.88;0.85;;;9.80;99.90;;;;;;5052586;28;20044;-92
2021/12/15 09:18:14;;;;;;;1.83;1.73;;;9.90;99.90;;;;;;5052091;28;20050;-92
2021/12/15 09:20:44;;;;;;;1.35;1.25;;;9.90;99.90;;;;;;5057422;28;20068;-94
2021/12/15 09:23:13;;;;;;;1.65;1.15;;;9.90;99.90;;;;;;5051077;28;20247;-93
2021/12/15 09:25:40;;;;;;;0.95;0.90;;;9.80;99.90;;;;;;5053225;28;20052;-93
2021/12/15 09:28:06;;;;;;;3.42;2.60;;;9.80;99.90;;;;;;5045602;28;20132;-88
2021/12/15 09:30:32;;;;;;;1.20;1.10;;;9.70;99.90;;;;;;5044713;28;20059;-90
2021/12/15 09:32:59;;;;;;;1.85;1.75;;;9.60;99.90;;;;;;5057879;28;20071;-92
2021/12/15 09:35:27;;;;;;;2.90;2.00;;;9.60;99.90;;;;;;5049222;28;20060;-88
2021/12/15 09:37:54;;;;;;;1.95;1.83;;;9.60;99.90;;;;;;5047496;28;20052;-88
2021/12/15 09:40:21;;;;;;;0.95;0.95;;;9.50;99.90;;;;;;5049469;28;20044;-91
2021/12/15 09:42:48;;;;;;;6.05;2.65;;;9.60;99.90;;;;;;5047974;28;20144;-90
2021/12/15 10:04:39;;;;;;;2.15;0.90;;;10.20;99.90;;;;;;5064610;28;20102;-87
2021/12/15 10:21:01;;;;;;;1.02;1.00;;;10.20;99.90;;;;;;5064797;28;20393;-87
2021/12/15 10:23:35;;;;;;;1.08;1.02;;;10.20;99.90;;;;;;5073076;28;20043;-89
2021/12/15 10:26:00;;;;;;;;;;;10.20;99.90;;;;;;5047462;28;20041;-90
2021/12/15 10:28:31;;;;;;;1.83;1.65;;;10.10;99.90;;;;;;5045838;28;19986;-90
2021/12/15 10:31:01;;;;;;;1.13;1.13;;;10.20;99.90;;;;;;5046996;28;20048;-93
2021/12/15 10:33:30;;;;;;;0.80;0.80;;;10.20;99.90;;;;;;5057530;28;20064;-89
2021/12/15 10:36:16;;;;;;;2.47;1.35;;;10.20;99.90;;;;;;5047431;28;20167;-87
2021/12/15 10:38:45;;;;;;;4.05;1.50;;;10.20;99.90;;;;;;5062644;28;20056;-87
2021/12/15 10:41:33;;;;;;;0.85;0.65;;;10.20;99.90;;;;;;5038249;28;20049;-88
2021/12/15 10:44:06;;;;;;;1.60;1.05;;;10.20;99.90;;;;;;5051159;28;20043;-87
2021/12/15 10:47:07;;;;;;;1.45;1.00;;;10.10;99.90;;;;;;5040462;28;20047;-88
2021/12/15 10:49:38;;;;;;;1.27;1.17;;;10.10;99.90;;;;;;5014282;28;20057;-88
2021/12/15 10:52:10;;;;;;;0.95;0.95;;;10.20;99.90;;;;;;5069751;28;20075;-88
2021/12/15 10:54:40;;;;;;;0.73;0.73;;;10.20;99.90;;;;;;5049925;28;20037;-88
2021/12/15 10:57:12;;;;;;;1.23;1.08;;;10.20;99.90;;;;;;5055893;28;20092;-89
2021/12/15 10:59:48;;;;;;;1.58;1.30;;;10.20;99.90;;;;;;5050094;28;20048;-89
2021/12/15 11:02:27;;;;;;;0.70;0.70;;;10.20;99.90;;;;;;5046090;28;20029;-89
2021/12/15 11:05:05;;;;;;;1.15;0.88;;;10.30;99.90;;;;;;5048994;28;20071;-88
2021/12/15 11:07:35;;;;;;;1.88;1.00;;;10.30;99.90;;;;;;5050159;28;20090;-88
2021/12/15 11:10:06;;;;;;;1.23;0.80;;;10.30;99.90;;;;;;5047392;28;20082;-88
2021/12/15 11:12:49;;;;;;;0.63;0.63;;;10.30;99.90;;;;;;5040785;28;20109;-89
2021/12/15 11:15:22;;;;;;;0.98;0.98;;;10.30;99.90;;;;;;5051062;28;20036;-87
2021/12/15 11:17:50;;;;;;;1.33;1.23;;;10.40;99.90;;;;;;5044470;28;20064;-86
2021/12/15 11:20:29;;;;;;;1.15;1.05;;;10.40;99.90;;;;;;5068456;28;20032;-85
2021/12/15 11:23:00;;;;;;;0.80;0.80;;;10.40;99.90;;;;;;5065935;28;20049;-87
2021/12/15 11:25:34;;;;;;;1.25;0.95;;;10.40;99.90;;;;;;5067728;28;20137;-87
2021/12/15 11:28:04;;;;;;;0.70;0.70;;;10.40;99.90;;;;;;5064153;28;20481;-87
2021/12/15 11:30:46;;;;;;;0.75;0.73;;;10.50;99.90;;;;;;5048591;28;20049;-86
2021/12/15 11:33:19;;;;;;;2.60;0.98;;;10.50;99.90;;;;;;5053716;28;20032;-87
2021/12/15 11:35:50;;;;;;;0.70;0.70;;;10.50;99.90;;;;;;5049666;28;20040;-87
2021/12/15 11:38:23;;;;;;;0.90;0.90;;;10.50;99.90;;;;;;5049895;28;20473;-88
2021/12/15 11:40:51;;;;;;;0.82;0.82;;;10.50;99.90;;;;;;5049325;28;20044;-87
2021/12/15 11:43:57;;;;;;;1.10;1.08;;;10.60;99.90;;;;;;5053188;28;20150;-86
2021/12/15 11:46:25;;;;;;;1.98;1.20;;;10.60;99.90;;;;;;5016862;28;20055;-87
2021/12/15 11:48:59;;;;;;;0.80;0.80;;;10.60;99.90;;;;;;5066033;28;20033;-86
2021/12/15 11:51:43;;;;;;;0.70;0.70;;;10.60;99.90;;;;;;5067025;28;20107;-87
2021/12/15 11:54:19;;;;;;;0.77;0.77;;;10.60;99.90;;;;;;5049516;28;20091;-87
2021/12/15 11:56:50;;;;;;;0.80;0.80;;;10.70;99.90;;;;;;5065104;28;20062;-86
2021/12/15 11:59:24;;;;;;;0.75;0.75;;;10.60;99.90;;;;;;5070587;28;20052;-87
2021/12/15 12:02:08;;;;;;;2.83;2.10;;;10.60;99.90;;;;;;5064592;28;20056;-87
2021/12/15 12:04:43;;;;;;;0.70;0.70;;;10.60;99.90;;;;;;5067482;28;20041;-86
2021/12/15 12:07:19;;;;;;;2.92;1.05;;;10.60;99.90;;;;;;5062314;28;20049;-86
2021/12/15 12:09:48;;;;;;;1.23;1.02;;;10.60;99.90;;;;;;5074809;28;20060;-87
2021/12/15 12:12:16;;;;;;;2.78;1.55;;;10.50;99.90;;;;;;5073956;28;20099;-85
2021/12/15 12:14:49;;;;;;;1.27;1.17;;;10.60;99.90;;;;;;5069258;28;20127;-87
2021/12/15 12:17:18;;;;;;;1.15;1.00;;;10.60;99.90;;;;;;5053508;28;20033;-88
2021/12/15 12:20:07;;;;;;;0.60;0.60;;;10.60;99.90;;;;;;5049424;28;20036;-88
2021/12/15 12:22:34;;;;;;;0.60;0.60;;;10.60;99.90;;;;;;5050753;28;20122;-89
2021/12/15 12:25:07;;;;;;;1.17;1.02;;;10.60;99.90;;;;;;5068439;28;20067;-87
2021/12/15 12:27:34;;;;;;;1.40;1.02;;;10.60;99.90;;;;;;5074145;28;20488;-88
2021/12/15 12:30:04;;;;;;;0.50;0.50;;;10.60;99.90;;;;;;5051564;28;20545;-88
2021/12/15 12:32:29;;;;;;;0.75;0.75;;;10.60;99.90;;;;;;5052024;28;20060;-88
2021/12/15 12:34:55;;;;;;;1.88;1.20;;;10.50;99.90;;;;;;5049112;28;20046;-89
2021/12/15 12:37:21;;;;;;;0.90;0.90;;;10.50;99.90;;;;;;5051881;28;20068;-88
2021/12/15 12:39:53;;;;;;;0.63;0.63;;;10.50;99.90;;;;;;5047767;28;20040;-88
2021/12/15 12:42:33;;;;;;;0.80;0.80;;;10.50;99.90;;;;;;5064458;28;20146;-91
2021/12/15 12:45:38;;;;;;;0.93;0.93;;;10.50;99.90;;;;;;5048983;28;20059;-88
2021/12/15 12:59:45;;;;;;;0.60;0.60;;;10.30;99.90;;;;;;5064584;28;20091;-89
2021/12/15 13:02:59;;;;;;;0.60;0.60;;;10.30;99.90;;;;;;5061222;28;20561;-88
2021/12/15 13:05:42;;;;;;;0.60;0.60;;;10.30;99.90;;;;;;5065454;28;20576;-89
2021/12/15 13:08:15;;;;;;;0.50;0.50;;;10.30;99.90;;;;;;5053668;28;20067;-86
2021/12/15 13:10:52;;;;;;;0.50;0.50;;;10.20;99.90;;;;;;5050435;28;20040;-86
2021/12/15 13:13:42;;;;;;;5.82;2.55;;;10.10;99.90;;;;;;5063914;28;20119;-87
2021/12/15 13:16:11;;;;;;;0.68;0.68;;;10.10;99.90;;;;;;5046608;28;20068;-87
2021/12/15 13:18:54;;;;;;;1.65;1.50;;;10.10;99.90;;;;;;5066417;28;20044;-87
2021/12/15 13:21:38;;;;;;;0.60;0.60;;;10.00;99.90;;;;;;5043449;28;20040;-87
2021/12/15 13:24:09;;;;;;;0.60;0.60;;;10.00;99.90;;;;;;5061927;28;20049;-87
2021/12/15 13:29:56;;;;;;;0.70;0.70;;;9.80;99.90;;;;;;5070459;28;20054;-91
2021/12/15 13:32:30;;;;;;;0.80;0.80;;;9.90;99.90;;;;;;5047363;28;20123;-90
2021/12/15 13:34:55;;;;;;;0.60;0.60;;;9.80;99.90;;;;;;5049610;28;20044;-88
2021/12/15 13:37:55;;;;;;;0.80;0.80;;;9.80;99.90;;;;;;5043913;28;20037;-89
2021/12/15 13:40:53;;;;;;;0.63;0.63;;;9.80;99.90;;;;;;5044450;28;20059;-89
2021/12/15 13:43:40;;;;;;;0.60;0.60;;;9.70;99.90;;;;;;5062044;28;20056;-87
2021/12/15 13:46:21;;;;;;;0.70;0.70;;;9.70;99.90;;;;;;5045894;28;20048;-87
2021/12/15 13:48:55;;;;;;;0.60;0.60;;;9.70;99.90;;;;;;5047964;28;20040;-88
2021/12/15 13:51:54;;;;;;;1.17;1.08;;;9.60;99.90;;;;;;5067425;28;20047;-87
2021/12/15 13:54:33;;;;;;;0.50;0.50;;;9.50;99.90;;;;;;5046845;28;20047;-88
2021/12/15 13:57:04;;;;;;;0.80;0.80;;;9.50;99.90;;;;;;5042703;28;20051;-88
2021/12/15 13:59:36;;;;;;;0.60;0.60;;;9.60;99.90;;;;;;5053693;28;20296;-87
2021/12/15 14:02:16;;;;;;;0.50;0.50;;;9.60;99.90;;;;;;5064457;28;20033;-87
2021/12/15 14:05:21;;;;;;;0.70;0.70;;;9.40;99.90;;;;;;5049928;28;20047;-85
2021/12/15 14:08:09;;;;;;;1.05;1.05;;;9.30;99.90;;;;;;5062238;28;20045;-87
2021/12/15 14:10:34;;;;;;;0.50;0.50;;;9.20;99.90;;;;;;5062341;28;20565;-87
2021/12/15 14:13:05;;;;;;;0.50;0.50;;;9.10;99.90;;;;;;5051679;28;20036;-87
2021/12/15 14:15:37;;;;;;;0.60;0.60;;;9.10;99.90;;;;;;5049508;28;20051;-88
2021/12/15 14:18:26;;;;;;;0.70;0.70;;;9.00;99.90;;;;;;5048249;28;20123;-86
2021/12/15 14:21:04;;;;;;;1.00;1.00;;;9.00;99.90;;;;;;5054103;28;20063;-87
2021/12/15 14:23:29;;;;;;;0.50;0.50;;;9.00;99.90;;;;;;5042791;28;20040;-87
2021/12/15 14:25:57;;;;;;;0.80;0.80;;;9.00;99.90;;;;;;5060462;28;20101;-87
2021/12/15 14:28:44;;;;;;;0.65;0.65;;;9.00;99.90;;;;;;5051279;28;20071;-86
2021/12/15 14:31:15;;;;;;;0.60;0.60;;;8.90;99.90;;;;;;5047308;28;20055;-86
2021/12/15 14:33:44;;;;;;;0.50;0.50;;;8.90;99.90;;;;;;5054599;28;20437;-86
2021/12/15 14:36:13;;;;;;;0.60;0.60;;;9.00;99.90;;;;;;5057393;28;20100;-86
2021/12/15 14:38:49;;;;;;;0.60;0.60;;;9.00;99.90;;;;;;5046785;28;20566;-87
2021/12/15 14:41:28;;;;;;;0.60;0.60;;;9.10;99.90;;;;;;5043895;28;20033;-87
2021/12/15 14:44:10;;;;;;;0.57;0.57;;;9.20;99.90;;;;;;5061230;28;20338;-87
2021/12/15 14:46:42;;;;;;;0.60;0.60;;;9.30;99.90;;;;;;5042961;28;20051;-86